Terminal Aerodrome Forecast
Issued by NWS

Current Version | Previous Version | Text Only | Print | Product List | Glossary On
Versions: 1 2 3 4 5 6 7 8 9 10 11 12 13 14 15 16 17
000
FTUS44 KTSA 032000 AAA
TAFBVO
TAF AMD
KBVO 032005Z 0320/0418 20013KT P6SM SCT020 OVC100
      TEMPO 0321/0401 BKN020
     FM040100 35008G16KT P6SM OVC015
     FM040600 01011G18KT 3SM -FZRAPL OVC010
     FM040900 01012G21KT 3SM -SNPL OVC007=

USA.gov is the U.S. government's official web portal to all federal, state and local government web resources and services.